createdAt,value
2022-08-05T00:02:07.231Z,92890.38
2022-08-05T00:04:37.814Z,92893.75
2022-08-05T00:07:21.712Z,92880.72
2022-08-05T00:09:59.152Z,92890.19
2022-08-05T00:12:28.618Z,92886.44
2022-08-05T00:14:59.538Z,92879.22
2022-08-05T00:17:49.380Z,92882.44
2022-08-05T00:20:20.555Z,92884.69
2022-08-05T00:22:59.641Z,92878.72
2022-08-05T00:25:34.595Z,92886.69
2022-08-05T00:28:15.819Z,92876.97
2022-08-05T00:30:53.633Z,92882.53
2022-08-05T00:34:56.488Z,92879.13
2022-08-05T00:36:16.359Z,92881.91
2022-08-05T00:39:02.517Z,92883.84
2022-08-05T00:41:51.622Z,92875.66
2022-08-05T00:44:23.495Z,92878.19
2022-08-05T00:47:04.155Z,92872.94
2022-08-05T00:52:54.995Z,92871.84
2022-08-05T00:55:42.383Z,92868.53
2022-08-05T00:58:12.761Z,92865.31
2022-08-05T01:00:43.251Z,92869.22
2022-08-05T01:03:22.686Z,92864.97
2022-08-05T01:05:54.629Z,92872.16
2022-08-05T01:08:41.929Z,92873.31
2022-08-05T01:11:21.811Z,92867.53
2022-08-05T01:14:08.744Z,92869.72
2022-08-05T01:16:48.725Z,92869.72
2022-08-05T01:20:01.023Z,92869.31
2022-08-05T01:22:42.221Z,92864.91
2022-08-05T01:26:05.428Z,92867.81
2022-08-05T01:28:43.007Z,92868.50
2022-08-05T01:31:18.926Z,92867.84
2022-08-05T01:33:55.684Z,92866.03
2022-08-05T01:36:30.979Z,92862.03
2022-08-05T01:39:01.676Z,92859.00
2022-08-05T01:41:37.564Z,92859.94
2022-08-05T01:44:10.195Z,92861.75
2022-08-05T01:46:46.485Z,92861.91
2022-08-05T01:49:23.777Z,92859.69
2022-08-05T01:51:59.443Z,92857.34
2022-08-05T01:54:46.146Z,92853.75
2022-08-05T01:58:12.460Z,92856.09
2022-08-05T02:00:15.079Z,92855.84
2022-08-05T02:02:54.517Z,92858.47
2022-08-05T02:05:34.170Z,92856.13
2022-08-05T02:08:04.500Z,92859.03
2022-08-05T02:10:40.769Z,92851.28
2022-08-05T02:13:17.975Z,92858.50
2022-08-05T02:15:57.078Z,92853.78
2022-08-05T02:18:35.150Z,92854.19
2022-08-05T02:21:15.072Z,92854.03
2022-08-05T02:23:48.391Z,92855.16
2022-08-05T02:26:37.554Z,92862.34
2022-08-05T02:29:21.507Z,92854.22
2022-08-05T02:31:57.377Z,92851.84
2022-08-05T02:34:31.097Z,92855.44
2022-08-05T02:37:11.035Z,92844.22
2022-08-05T02:39:42.919Z,92860.25
2022-08-05T02:42:25.898Z,92860.41
2022-08-05T02:44:59.389Z,92853.50
2022-08-05T02:47:58.566Z,92857.94
2022-08-05T02:50:27.329Z,92856.97
2022-08-05T02:52:57.792Z,92857.94
2022-08-05T02:55:54.923Z,92855.00
2022-08-05T02:58:20.384Z,92855.66
2022-08-05T03:00:51.501Z,92846.97
2022-08-05T03:03:23.737Z,92845.47
2022-08-05T03:06:56.031Z,92847.09
2022-08-05T03:08:44.507Z,92844.91
2022-08-05T03:11:56.429Z,92841.28
2022-08-05T03:14:13.367Z,92843.78
2022-08-05T03:16:44.064Z,92842.28
2022-08-05T03:19:29.469Z,92844.47
2022-08-05T03:22:05.057Z,92838.53
2022-08-05T03:24:49.573Z,92846.13
2022-08-05T03:27:21.998Z,92846.47
2022-08-05T03:30:08.111Z,92846.03
2022-08-05T03:32:39.452Z,92848.53
2022-08-05T03:35:11.449Z,92853.50
2022-08-05T03:37:46.785Z,92850.19
2022-08-05T03:40:31.453Z,92847.41
2022-08-05T03:43:58.541Z,92853.50
2022-08-05T03:45:58.192Z,92850.75
2022-08-05T03:48:29.426Z,92847.69
2022-08-05T03:55:34.229Z,92848.38
2022-08-05T03:57:16.382Z,92853.34
2022-08-05T03:59:54.450Z,92851.28
2022-08-05T04:02:37.777Z,92851.03
2022-08-05T04:05:11.634Z,92851.69
2022-08-05T04:07:51.378Z,92852.41
2022-08-05T04:10:37.102Z,92848.66
2022-08-05T04:13:08.938Z,92850.84
2022-08-05T04:15:38.591Z,92843.69
2022-08-05T04:18:25.854Z,92841.59
2022-08-05T04:20:57.272Z,92842.00
2022-08-05T04:23:57.101Z,92840.47
2022-08-05T04:26:20.952Z,92844.75
2022-08-05T04:28:51.075Z,92841.09
2022-08-05T04:31:21.892Z,92834.88
2022-08-05T04:34:17.483Z,92834.13
2022-08-05T04:36:49.816Z,92834.56
2022-08-05T04:39:19.903Z,92837.97
2022-08-05T04:41:51.487Z,92827.31
2022-08-05T04:44:29.573Z,92839.13
2022-08-05T04:47:09.052Z,92825.88
2022-08-05T04:50:02.610Z,92829.56
2022-08-05T04:52:33.431Z,92828.50
2022-08-05T04:55:05.368Z,92818.41
2022-08-05T04:57:53.992Z,92822.00
2022-08-05T05:00:24.149Z,92819.47
2022-08-05T05:02:53.889Z,92816.97
2022-08-05T05:05:28.735Z,92819.53
2022-08-05T05:08:02.844Z,92810.97
2022-08-05T05:10:34.002Z,92810.16
2022-08-05T05:13:04.972Z,92816.66
2022-08-05T05:15:57.004Z,92812.50
2022-08-05T05:18:31.158Z,92813.94
2022-08-05T05:21:04.037Z,92810.56
2022-08-05T05:24:02.286Z,92812.50
2022-08-05T05:26:28.886Z,92810.38
2022-08-05T05:29:14.467Z,92807.81
2022-08-05T05:31:46.360Z,92804.00
2022-08-05T05:34:18.990Z,92807.97
2022-08-05T05:36:53.690Z,92806.91
2022-08-05T05:39:23.171Z,92809.72
2022-08-05T05:41:54.246Z,92811.31
2022-08-05T05:44:36.528Z,92815.59
2022-08-05T05:47:30.257Z,92812.44
2022-08-05T05:50:01.615Z,92815.88
2022-08-05T05:52:34.589Z,92813.16
2022-08-05T05:55:13.201Z,92812.47
2022-08-05T05:57:52.320Z,92812.78
2022-08-05T06:00:27.575Z,92816.88
2022-08-05T06:03:02.200Z,92818.06
2022-08-05T06:05:32.008Z,92817.81
2022-08-05T06:08:03.857Z,92802.06
2022-08-05T06:10:34.506Z,92806.66
2022-08-05T06:13:06.857Z,92804.47
2022-08-05T06:16:30.546Z,92807.66
2022-08-05T06:18:31.451Z,92809.34
2022-08-05T06:21:02.052Z,92809.53
2022-08-05T06:23:43.966Z,92815.94
2022-08-05T06:26:21.583Z,92811.81
2022-08-05T06:28:53.713Z,92814.31
2022-08-05T06:31:32.051Z,92807.94
2022-08-05T06:34:07.386Z,92810.63
2022-08-05T06:36:57.380Z,92815.56
2022-08-05T06:39:28.188Z,92816.97
2022-08-05T06:41:59.347Z,92814.84
2022-08-05T06:44:29.455Z,92814.03
2022-08-05T06:47:02.318Z,92820.22
2022-08-05T06:50:00.570Z,92825.97
2022-08-05T06:53:54.229Z,92816.94
2022-08-05T06:56:26.543Z,92832.16
2022-08-05T06:58:56.668Z,92820.44
2022-08-05T07:01:27.723Z,92829.72
2022-08-05T07:04:03.273Z,92830.72
2022-08-05T07:06:32.818Z,92822.63
2022-08-05T07:09:04.640Z,92816.47
2022-08-05T07:11:36.732Z,92828.22
2022-08-05T07:14:29.207Z,92829.75
2022-08-05T07:17:59.946Z,92833.38
2022-08-05T07:20:31.550Z,92838.41
2022-08-05T07:22:45.768Z,92838.16
2022-08-05T07:25:54.392Z,92829.59
2022-08-05T07:28:11.601Z,92828.91
2022-08-05T07:30:50.334Z,92840.31
2022-08-05T07:33:36.450Z,92839.91
2022-08-05T07:36:20.342Z,92828.13
2022-08-05T07:38:54.684Z,92828.78
2022-08-05T07:42:08.364Z,92827.47
2022-08-05T07:44:18.901Z,92835.75
2022-08-05T07:46:51.259Z,92838.78
2022-08-05T07:49:21.044Z,92834.00
2022-08-05T07:51:54.230Z,92841.84
2022-08-05T07:54:31.391Z,92838.50
2022-08-05T07:57:17.661Z,92829.84
2022-08-05T07:59:55.058Z,92833.00
2022-08-05T08:02:31.176Z,92836.66
2022-08-05T08:05:19.472Z,92835.56
2022-08-05T08:08:00.077Z,92826.78
2022-08-05T08:10:30.459Z,92828.69
2022-08-05T08:13:01.732Z,92844.81
2022-08-05T08:16:33.879Z,92827.25
2022-08-05T08:18:21.275Z,92843.16
2022-08-05T08:21:03.057Z,92828.09
2022-08-05T08:24:01.970Z,92833.28
2022-08-05T08:26:27.057Z,92826.47
2022-08-05T08:29:09.698Z,92830.84
2022-08-05T08:31:52.449Z,92842.28
2022-08-05T08:34:30.855Z,92841.91
2022-08-05T08:37:05.193Z,92834.78
2022-08-05T08:39:37.369Z,92835.66
2022-08-05T08:42:32.362Z,92837.59
2022-08-05T08:45:23.786Z,92832.34
2022-08-05T08:48:07.138Z,92825.97
2022-08-05T08:51:22.427Z,92834.19
2022-08-05T08:53:44.378Z,92831.69
2022-08-05T08:56:15.022Z,92828.38
2022-08-05T08:58:47.930Z,92838.25
2022-08-05T09:01:20.797Z,92829.13
2022-08-05T09:03:57.230Z,92822.97
2022-08-05T09:06:30.199Z,92811.59
2022-08-05T09:09:02.536Z,92814.81
2022-08-05T09:11:51.025Z,92817.91
2022-08-05T09:14:59.129Z,92807.75
2022-08-05T09:17:40.052Z,92801.69
2022-08-05T09:20:06.401Z,92802.31
2022-08-05T09:23:09.458Z,92799.44
2022-08-05T09:26:03.110Z,92801.88
2022-08-05T09:28:31.550Z,92797.38
2022-08-05T09:31:58.569Z,92797.00
2022-08-05T09:34:01.525Z,92799.28
2022-08-05T09:36:54.366Z,92791.69
2022-08-05T09:39:27.758Z,92792.47
2022-08-05T09:42:17.371Z,92790.63
2022-08-05T09:44:57.468Z,92795.25
2022-08-05T09:47:55.247Z,92793.31
2022-08-05T09:53:59.175Z,92776.91
2022-08-05T09:56:33.649Z,92782.91
2022-08-05T09:59:05.488Z,92780.31
2022-08-05T10:01:39.588Z,92786.00
2022-08-05T10:04:12.961Z,92774.81
2022-08-05T10:06:49.720Z,92766.88
2022-08-05T10:09:30.569Z,92773.06
2022-08-05T10:12:30.819Z,92776.72
2022-08-05T10:15:20.314Z,92765.97
2022-08-05T10:18:13.932Z,92769.28
2022-08-05T10:20:48.746Z,92770.66
2022-08-05T10:23:51.033Z,92773.41
2022-08-05T10:26:15.004Z,92765.66
2022-08-05T10:28:46.580Z,92765.19
2022-08-05T10:32:53.353Z,92771.00
2022-08-05T10:34:08.564Z,92764.78
2022-08-05T10:36:39.832Z,92772.06
2022-08-05T10:39:15.136Z,92764.00
2022-08-05T10:42:02.959Z,92759.38
2022-08-05T10:44:34.879Z,92768.69
2022-08-05T10:47:26.645Z,92767.06
2022-08-05T10:50:32.424Z,92761.91
2022-08-05T10:53:01.754Z,92755.84
2022-08-05T10:55:38.492Z,92748.13
2022-08-05T10:58:23.758Z,92735.84
2022-08-05T11:01:13.270Z,92733.47
2022-08-05T11:04:07.146Z,92749.94
2022-08-05T11:06:37.313Z,92746.81
2022-08-05T11:09:24.408Z,92738.56
2022-08-05T11:12:50.497Z,92742.53
2022-08-05T11:16:00.960Z,92743.81
2022-08-05T11:18:32.609Z,92738.53
2022-08-05T11:21:11.238Z,92728.59
2022-08-05T11:24:05.660Z,92741.22
2022-08-05T11:26:49.419Z,92742.41
2022-08-05T11:29:40.472Z,92728.91
2022-08-05T11:32:31.501Z,92731.09
2022-08-05T11:35:00.974Z,92723.94
2022-08-05T11:38:28.626Z,92735.50
2022-08-05T11:41:34.137Z,92725.69
2022-08-05T11:44:05.782Z,92725.78
2022-08-05T11:46:58.241Z,92724.03
2022-08-05T11:49:34.147Z,92728.09
2022-08-05T11:52:11.601Z,92720.34
2022-08-05T11:54:43.514Z,92716.75
2022-08-05T11:58:08.075Z,92709.63
2022-08-05T12:00:29.049Z,92706.28
2022-08-05T12:02:59.789Z,92700.31
2022-08-05T12:05:36.158Z,92702.81
2022-08-05T12:08:11.543Z,92691.81
2022-08-05T12:10:45.459Z,92712.00
2022-08-05T12:13:27.789Z,92715.13
2022-08-05T12:16:15.313Z,92719.44
2022-08-05T12:18:49.414Z,92708.59
2022-08-05T12:21:30.130Z,92711.09
2022-08-05T12:24:07.192Z,92709.94
2022-08-05T12:26:39.174Z,92696.25
2022-08-05T12:29:15.853Z,92703.78
2022-08-05T12:31:53.794Z,92701.38
2022-08-05T12:34:28.696Z,92693.94
2022-08-05T12:37:03.423Z,92693.41
2022-08-05T12:39:38.626Z,92686.47
2022-08-05T12:42:14.767Z,92695.50
2022-08-05T12:44:47.732Z,92693.81
2022-08-05T12:47:30.692Z,92692.97
2022-08-05T12:50:03.316Z,92686.75
2022-08-05T12:53:55.686Z,92685.63
2022-08-05T12:56:35.331Z,92672.72
2022-08-05T12:59:20.799Z,92678.16
2022-08-05T13:02:07.530Z,92672.59
2022-08-05T13:04:41.689Z,92676.63
2022-08-05T13:07:47.813Z,92665.88
2022-08-05T13:10:19.745Z,92670.53
2022-08-05T13:12:57.141Z,92664.41
2022-08-05T13:15:35.887Z,92665.63
2022-08-05T13:18:11.791Z,92682.13
2022-08-05T13:20:50.117Z,92673.78
2022-08-05T13:23:22.808Z,92669.50
2022-08-05T13:26:00.991Z,92667.25
2022-08-05T13:28:33.981Z,92665.78
2022-08-05T13:31:14.289Z,92673.09
2022-08-05T13:34:21.985Z,92669.44
2022-08-05T13:36:34.720Z,92670.38
2022-08-05T13:39:08.539Z,92673.72
2022-08-05T13:41:56.413Z,92666.22
2022-08-05T13:44:26.507Z,92658.53
2022-08-05T13:47:02.298Z,92664.97
2022-08-05T13:49:35.432Z,92667.03
2022-08-05T13:52:13.709Z,92660.13
2022-08-05T13:54:43.830Z,92659.31
2022-08-05T13:57:25.559Z,92658.94
2022-08-05T14:00:15.411Z,92650.44
2022-08-05T14:02:46.980Z,92655.31
2022-08-05T14:05:19.312Z,92646.69
2022-08-05T14:08:00.801Z,92645.25
2022-08-05T14:10:37.382Z,92638.84
2022-08-05T14:13:08.619Z,92640.34
2022-08-05T14:16:05.218Z,92647.47
2022-08-05T14:18:28.147Z,92636.97
2022-08-05T14:20:57.653Z,92640.97
2022-08-05T14:23:36.285Z,92642.88
2022-08-05T14:26:06.521Z,92634.09
2022-08-05T14:28:37.359Z,92628.22
2022-08-05T14:32:02.883Z,92629.75
2022-08-05T14:34:12.597Z,92621.41
2022-08-05T14:36:42.162Z,92620.16
2022-08-05T14:39:23.226Z,92627.78
2022-08-05T14:42:19.421Z,92617.91
2022-08-05T14:44:46.008Z,92620.13
2022-08-05T14:47:15.596Z,92623.41
2022-08-05T14:49:59.096Z,92613.22
2022-08-05T14:52:52.045Z,92614.16
2022-08-05T14:55:20.713Z,92617.22
2022-08-05T14:57:54.468Z,92628.53
2022-08-05T15:00:29.328Z,92619.56
2022-08-05T15:02:59.180Z,92619.38
2022-08-05T15:05:29.769Z,92631.53
2022-08-05T15:08:08.753Z,92621.47
2022-08-05T15:10:46.049Z,92621.66
2022-08-05T15:13:16.416Z,92619.50
2022-08-05T15:15:54.099Z,92617.38
2022-08-05T15:18:26.512Z,92611.53
2022-08-05T15:20:56.078Z,92611.75
2022-08-05T15:23:25.458Z,92605.09
2022-08-05T15:25:58.548Z,92609.78
2022-08-05T15:28:35.156Z,92618.75
2022-08-05T15:31:13.911Z,92617.56
2022-08-05T15:34:04.495Z,92614.44
2022-08-05T15:36:33.932Z,92612.28
2022-08-05T15:41:00.213Z,92608.75
2022-08-05T15:41:57.702Z,92608.19
2022-08-05T15:44:30.184Z,92613.63
2022-08-05T15:47:04.577Z,92604.16
2022-08-05T15:49:52.046Z,92604.63
2022-08-05T15:53:53.927Z,92609.47
2022-08-05T15:56:23.522Z,92602.63
2022-08-05T15:58:53.708Z,92600.75
2022-08-05T16:01:29.467Z,92593.47
2022-08-05T16:04:10.279Z,92592.88
2022-08-05T16:06:40.458Z,92594.72
2022-08-05T16:09:11.434Z,92591.91
2022-08-05T16:11:42.581Z,92604.13
2022-08-05T16:14:17.299Z,92604.44
2022-08-05T16:16:48.204Z,92601.81
2022-08-05T16:19:19.006Z,92613.84
2022-08-05T16:22:10.509Z,92609.94
2022-08-05T16:24:51.938Z,92601.06
2022-08-05T16:27:46.821Z,92597.41
2022-08-05T16:30:25.964Z,92595.84
2022-08-05T16:32:56.861Z,92593.38
2022-08-05T16:35:28.286Z,92586.22
2022-08-05T16:38:24.510Z,92598.28
2022-08-05T16:40:59.879Z,92595.91
2022-08-05T16:43:33.356Z,92599.69
2022-08-05T16:46:13.072Z,92596.41
2022-08-05T16:48:55.539Z,92592.06
2022-08-05T16:51:25.304Z,92600.56
2022-08-05T16:54:05.301Z,92603.31
2022-08-05T16:56:42.411Z,92602.09
2022-08-05T16:59:15.624Z,92606.22
2022-08-05T17:01:54.623Z,92609.38
2022-08-05T17:04:28.008Z,92603.00
2022-08-05T17:07:01.501Z,92608.44
2022-08-05T17:09:38.882Z,92613.00
2022-08-05T17:12:50.248Z,92608.72
2022-08-05T17:15:15.646Z,92607.91
2022-08-05T17:17:54.481Z,92609.22
2022-08-05T17:20:25.184Z,92607.03
2022-08-05T17:22:58.709Z,92614.91
2022-08-05T17:25:39.251Z,92612.66
2022-08-05T17:28:15.594Z,92617.19
2022-08-05T17:30:51.744Z,92615.97
2022-08-05T17:33:22.090Z,92614.75
2022-08-05T17:36:07.770Z,92623.25
2022-08-05T17:38:40.379Z,92614.88
2022-08-05T17:41:22.968Z,92615.06
2022-08-05T17:44:01.051Z,92621.28
2022-08-05T17:46:32.810Z,92615.13
2022-08-05T17:49:02.329Z,92617.56
2022-08-05T17:51:40.158Z,92620.69
2022-08-05T17:54:10.658Z,92621.09
2022-08-05T17:56:40.222Z,92619.88
2022-08-05T17:59:11.610Z,92629.78
2022-08-05T18:01:42.649Z,92632.28
2022-08-05T18:04:21.437Z,92629.19
2022-08-05T18:07:00.331Z,92629.81
2022-08-05T18:09:58.752Z,92640.94
2022-08-05T18:12:24.246Z,92634.59
2022-08-05T18:14:55.600Z,92633.34
2022-08-05T18:18:01.699Z,92635.00
2022-08-05T18:20:15.631Z,92646.28
2022-08-05T18:22:54.136Z,92644.66
2022-08-05T18:25:25.197Z,92644.88
2022-08-05T18:28:05.118Z,92639.31
2022-08-05T18:30:39.166Z,92652.09
2022-08-05T18:33:13.804Z,92650.00
2022-08-05T18:36:00.696Z,92649.00
2022-08-05T18:38:34.026Z,92648.38
2022-08-05T18:41:58.227Z,92649.44
2022-08-05T18:43:52.890Z,92651.06
2022-08-05T18:46:26.054Z,92650.88
2022-08-05T18:49:18.658Z,92656.84
2022-08-05T18:53:53.820Z,92658.91
2022-08-05T18:56:25.362Z,92660.75
2022-08-05T18:59:01.043Z,92660.75
2022-08-05T19:01:47.274Z,92662.59
2022-08-05T19:04:23.977Z,92672.03
2022-08-05T19:06:53.985Z,92668.34
2022-08-05T19:09:25.601Z,92667.53
2022-08-05T19:12:00.129Z,92665.47
2022-08-05T19:14:44.832Z,92669.59
2022-08-05T19:17:20.959Z,92657.88
2022-08-05T19:19:51.612Z,92659.53
2022-08-05T19:22:27.556Z,92658.91
2022-08-05T19:25:02.633Z,92659.53
2022-08-05T19:27:32.299Z,92644.94
2022-08-05T19:30:03.597Z,92653.38
2022-08-05T19:32:33.654Z,92647.59
2022-08-05T19:35:05.870Z,92645.13
2022-08-05T19:38:04.400Z,92642.44
2022-08-05T19:40:28.358Z,92654.56
2022-08-05T19:43:04.565Z,92645.53
2022-08-05T19:45:36.964Z,92650.25
2022-08-05T19:48:14.250Z,92647.19
2022-08-05T19:50:44.964Z,92656.41
2022-08-05T19:53:14.554Z,92654.56
2022-08-05T19:56:14.202Z,92655.16
2022-08-05T19:58:53.081Z,92652.69
2022-08-05T20:01:28.578Z,92645.47
2022-08-05T20:03:58.471Z,92642.81
2022-08-05T20:06:29.530Z,92642.41
2022-08-05T20:09:06.178Z,92641.38
2022-08-05T20:11:48.157Z,92640.34
2022-08-05T20:14:26.730Z,92636.63
2022-08-05T20:16:58.772Z,92632.75
2022-08-05T20:19:32.204Z,92637.66
2022-08-05T20:22:05.930Z,92632.31
2022-08-05T20:24:39.169Z,92629.66
2022-08-05T20:27:11.138Z,92632.97
2022-08-05T20:29:41.302Z,92627.41
2022-08-05T20:32:22.060Z,92627.41
2022-08-05T20:34:51.611Z,92625.31
2022-08-05T20:38:04.559Z,92624.50
2022-08-05T20:40:12.671Z,92620.59
2022-08-05T20:42:43.866Z,92617.69
2022-08-05T20:45:13.974Z,92617.25
2022-08-05T20:47:43.887Z,92617.47
2022-08-05T20:50:16.246Z,92615.25
2022-08-05T20:52:47.594Z,92612.97
2022-08-05T20:55:56.731Z,92616.44
2022-08-05T20:58:08.378Z,92617.91
2022-08-05T21:00:44.325Z,92620.34
2022-08-05T21:03:24.137Z,92615.91
2022-08-05T21:05:55.558Z,92609.75
2022-08-05T21:08:26.652Z,92621.03
2022-08-05T21:11:09.927Z,92614.25
2022-08-05T21:13:47.990Z,92616.66
2022-08-05T21:16:29.581Z,92616.44
2022-08-05T21:19:01.445Z,92623.44
2022-08-05T21:21:43.715Z,92627.72
2022-08-05T21:24:20.928Z,92630.22
2022-08-05T21:26:56.206Z,92638.59
2022-08-05T21:29:32.135Z,92633.47
2022-08-05T21:32:03.823Z,92634.66
2022-08-05T21:34:35.554Z,92638.34
2022-08-05T21:37:08.325Z,92640.09
2022-08-05T21:39:40.345Z,92636.06
2022-08-05T21:42:30.802Z,92632.41
2022-08-05T21:45:01.689Z,92636.50
2022-08-05T21:47:55.176Z,92639.22
2022-08-05T21:53:59.651Z,92638.72
2022-08-05T21:56:33.409Z,92644.06
2022-08-05T21:59:08.081Z,92635.41
2022-08-05T22:01:54.556Z,92638.81
2022-08-05T22:04:25.344Z,92642.59
2022-08-05T22:06:55.455Z,92640.72
2022-08-05T22:09:46.173Z,92643.56
2022-08-05T22:12:16.253Z,92637.47
2022-08-05T22:14:47.070Z,92634.25
2022-08-05T22:17:17.075Z,92632.44
2022-08-05T22:20:02.998Z,92630.88
2022-08-05T22:22:57.062Z,92630.13
2022-08-05T22:26:10.682Z,92627.97
2022-08-05T22:28:36.954Z,92632.91
2022-08-05T22:31:08.016Z,92630.69
2022-08-05T22:33:56.996Z,92635.34
2022-08-05T22:36:29.030Z,92627.94
2022-08-05T22:39:09.192Z,92638.50
2022-08-05T22:42:10.231Z,92626.13
2022-08-05T22:44:30.159Z,92622.25
2022-08-05T22:46:59.611Z,92621.94
2022-08-05T22:50:20.886Z,92620.75
2022-08-05T22:52:30.695Z,92621.97
2022-08-05T22:55:04.204Z,92622.97
2022-08-05T22:57:36.563Z,92621.84
2022-08-05T23:00:10.490Z,92626.50
2022-08-05T23:02:48.274Z,92619.41
2022-08-05T23:05:18.459Z,92621.28
2022-08-05T23:07:49.468Z,92619.16
2022-08-05T23:10:24.013Z,92609.09
2022-08-05T23:12:56.374Z,92618.25
2022-08-05T23:15:35.239Z,92623.53
2022-08-05T23:18:11.703Z,92621.22
2022-08-05T23:20:45.612Z,92626.41
2022-08-05T23:23:15.097Z,92623.59
2022-08-05T23:25:54.740Z,92631.38
2022-08-05T23:28:29.468Z,92634.56
2022-08-05T23:31:02.379Z,92625.97
2022-08-05T23:34:05.322Z,92630.28
2022-08-05T23:36:40.224Z,92626.16
2022-08-05T23:39:17.564Z,92632.78
2022-08-05T23:42:01.457Z,92630.97
2022-08-05T23:44:33.513Z,92631.16
2022-08-05T23:47:15.066Z,92634.66
2022-08-05T23:49:45.893Z,92624.06
2022-08-05T23:52:29.403Z,92616.31
2022-08-05T23:55:05.484Z,92618.97
2022-08-05T23:57:37.479Z,92620.78
